sensor_id;sensor_type;location;lat;lon;timestamp;temperature;humidity
56240;DHT22;42154;51.992;5.896;2024-03-02T00:00:08;8.90;99.90
56240;DHT22;42154;51.992;5.896;2024-03-02T00:02:43;8.90;99.90
56240;DHT22;42154;51.992;5.896;2024-03-02T00:05:20;8.90;99.90
56240;DHT22;42154;51.992;5.896;2024-03-02T00:07:54;9.00;99.90
56240;DHT22;42154;51.992;5.896;2024-03-02T00:10:39;9.00;99.90
56240;DHT22;42154;51.992;5.896;2024-03-02T00:13:08;8.90;99.90
56240;DHT22;42154;51.992;5.896;2024-03-02T00:15:47;9.00;99.90
56240;DHT22;42154;51.992;5.896;2024-03-02T00:18:14;9.00;99.90
56240;DHT22;42154;51.992;5.896;2024-03-02T00:20:42;9.00;99.90
56240;DHT22;42154;51.992;5.896;2024-03-02T00:23:09;9.10;99.90
56240;DHT22;42154;51.992;5.896;2024-03-02T00:25:37;9.10;99.90
56240;DHT22;42154;51.992;5.896;2024-03-02T00:28:04;9.10;99.90
56240;DHT22;42154;51.992;5.896;2024-03-02T00:33:23;9.10;99.90
56240;DHT22;42154;51.992;5.896;2024-03-02T00:35:51;9.00;99.90
56240;DHT22;42154;51.992;5.896;2024-03-02T00:38:17;9.00;99.90
56240;DHT22;42154;51.992;5.896;2024-03-02T00:40:44;9.10;99.90
56240;DHT22;42154;51.992;5.896;2024-03-02T00:46:17;9.20;99.90
56240;DHT22;42154;51.992;5.896;2024-03-02T00:48:58;9.10;99.90
56240;DHT22;42154;51.992;5.896;2024-03-02T00:51:27;9.10;99.90
56240;DHT22;42154;51.992;5.896;2024-03-02T00:53:54;9.10;99.90
56240;DHT22;42154;51.992;5.896;2024-03-02T00:56:24;9.20;99.90
56240;DHT22;42154;51.992;5.896;2024-03-02T00:58:51;9.10;99.90
56240;DHT22;42154;51.992;5.896;2024-03-02T01:01:17;9.20;99.90
56240;DHT22;42154;51.992;5.896;2024-03-02T01:03:43;9.20;99.90
56240;DHT22;42154;51.992;5.896;2024-03-02T01:06:09;9.20;99.90
56240;DHT22;42154;51.992;5.896;2024-03-02T01:08:35;9.20;99.90
56240;DHT22;42154;51.992;5.896;2024-03-02T01:11:01;9.20;99.90
56240;DHT22;42154;51.992;5.896;2024-03-02T01:13:27;9.20;99.90
56240;DHT22;42154;51.992;5.896;2024-03-02T01:15:53;9.20;99.90
56240;DHT22;42154;51.992;5.896;2024-03-02T01:18:19;9.20;99.90
56240;DHT22;42154;51.992;5.896;2024-03-02T01:20:45;9.20;99.90
56240;DHT22;42154;51.992;5.896;2024-03-02T01:23:11;9.20;99.90
56240;DHT22;42154;51.992;5.896;2024-03-02T01:25:37;9.20;99.90
56240;DHT22;42154;51.992;5.896;2024-03-02T01:28:03;9.20;99.90
56240;DHT22;42154;51.992;5.896;2024-03-02T01:30:29;9.20;99.90
56240;DHT22;42154;51.992;5.896;2024-03-02T01:32:55;9.20;99.90
56240;DHT22;42154;51.992;5.896;2024-03-02T01:35:21;9.20;99.90
56240;DHT22;42154;51.992;5.896;2024-03-02T01:37:46;9.20;99.90
56240;DHT22;42154;51.992;5.896;2024-03-02T01:40:12;9.20;99.90
56240;DHT22;42154;51.992;5.896;2024-03-02T01:42:39;9.20;99.90
56240;DHT22;42154;51.992;5.896;2024-03-02T01:45:05;9.30;99.90
56240;DHT22;42154;51.992;5.896;2024-03-02T01:47:31;9.20;99.90
56240;DHT22;42154;51.992;5.896;2024-03-02T01:49:58;9.20;99.90
56240;DHT22;42154;51.992;5.896;2024-03-02T01:52:24;9.30;99.90
56240;DHT22;42154;51.992;5.896;2024-03-02T01:54:50;9.20;99.90
56240;DHT22;42154;51.992;5.896;2024-03-02T01:57:16;9.20;99.90
56240;DHT22;42154;51.992;5.896;2024-03-02T01:59:42;9.20;99.90
56240;DHT22;42154;51.992;5.896;2024-03-02T02:02:08;9.20;99.90
56240;DHT22;42154;51.992;5.896;2024-03-02T02:04:34;9.20;99.90
56240;DHT22;42154;51.992;5.896;2024-03-02T02:06:59;9.20;99.90
56240;DHT22;42154;51.992;5.896;2024-03-02T02:09:25;9.20;99.90
56240;DHT22;42154;51.992;5.896;2024-03-02T02:11:51;9.20;99.90
56240;DHT22;42154;51.992;5.896;2024-03-02T02:14:17;9.20;99.90
56240;DHT22;42154;51.992;5.896;2024-03-02T02:16:44;9.20;99.90
56240;DHT22;42154;51.992;5.896;2024-03-02T02:19:09;9.20;99.90
56240;DHT22;42154;51.992;5.896;2024-03-02T02:21:36;9.20;99.90
56240;DHT22;42154;51.992;5.896;2024-03-02T02:24:01;9.20;99.90
56240;DHT22;42154;51.992;5.896;2024-03-02T02:26:29;9.10;99.90
56240;DHT22;42154;51.992;5.896;2024-03-02T02:28:55;9.10;99.90
56240;DHT22;42154;51.992;5.896;2024-03-02T02:31:21;9.10;99.90
56240;DHT22;42154;51.992;5.896;2024-03-02T02:33:46;9.10;99.90
56240;DHT22;42154;51.992;5.896;2024-03-02T02:36:12;9.10;99.90
56240;DHT22;42154;51.992;5.896;2024-03-02T02:38:41;9.10;99.90
56240;DHT22;42154;51.992;5.896;2024-03-02T02:41:09;9.10;99.90
56240;DHT22;42154;51.992;5.896;2024-03-02T02:43:34;9.10;99.90
56240;DHT22;42154;51.992;5.896;2024-03-02T02:46:01;9.10;99.90
56240;DHT22;42154;51.992;5.896;2024-03-02T02:48:26;9.10;99.90
56240;DHT22;42154;51.992;5.896;2024-03-02T02:50:52;9.10;99.90
56240;DHT22;42154;51.992;5.896;2024-03-02T02:53:18;9.10;99.90
56240;DHT22;42154;51.992;5.896;2024-03-02T02:55:43;9.10;99.90
56240;DHT22;42154;51.992;5.896;2024-03-02T02:58:09;9.10;99.90
56240;DHT22;42154;51.992;5.896;2024-03-02T03:00:35;9.10;99.90
56240;DHT22;42154;51.992;5.896;2024-03-02T03:03:02;9.10;99.90
56240;DHT22;42154;51.992;5.896;2024-03-02T03:05:28;9.00;99.90
56240;DHT22;42154;51.992;5.896;2024-03-02T03:07:54;9.00;99.90
56240;DHT22;42154;51.992;5.896;2024-03-02T03:10:20;9.00;99.90
56240;DHT22;42154;51.992;5.896;2024-03-02T03:12:47;9.00;99.90
56240;DHT22;42154;51.992;5.896;2024-03-02T03:15:13;8.90;99.90
56240;DHT22;42154;51.992;5.896;2024-03-02T03:17:39;9.00;99.90
56240;DHT22;42154;51.992;5.896;2024-03-02T03:20:07;8.90;99.90
56240;DHT22;42154;51.992;5.896;2024-03-02T03:22:40;8.90;99.90
56240;DHT22;42154;51.992;5.896;2024-03-02T03:25:06;8.90;99.90
56240;DHT22;42154;51.992;5.896;2024-03-02T03:27:33;8.90;99.90
56240;DHT22;42154;51.992;5.896;2024-03-02T03:29:59;8.90;99.90
56240;DHT22;42154;51.992;5.896;2024-03-02T03:32:25;8.90;99.90
56240;DHT22;42154;51.992;5.896;2024-03-02T03:34:50;8.90;99.90
56240;DHT22;42154;51.992;5.896;2024-03-02T03:37:16;8.80;99.90
56240;DHT22;42154;51.992;5.896;2024-03-02T03:39:42;8.90;99.90
56240;DHT22;42154;51.992;5.896;2024-03-02T03:42:08;8.80;99.90
56240;DHT22;42154;51.992;5.896;2024-03-02T03:44:34;8.80;99.90
56240;DHT22;42154;51.992;5.896;2024-03-02T03:47:00;8.80;99.90
56240;DHT22;42154;51.992;5.896;2024-03-02T03:49:27;8.80;99.90
56240;DHT22;42154;51.992;5.896;2024-03-02T03:51:53;8.80;99.90
56240;DHT22;42154;51.992;5.896;2024-03-02T03:54:19;8.80;99.90
56240;DHT22;42154;51.992;5.896;2024-03-02T03:56:45;8.80;99.90
56240;DHT22;42154;51.992;5.896;2024-03-02T03:59:10;8.70;99.90
56240;DHT22;42154;51.992;5.896;2024-03-02T04:01:37;8.70;99.90
56240;DHT22;42154;51.992;5.896;2024-03-02T04:04:03;8.70;99.90
56240;DHT22;42154;51.992;5.896;2024-03-02T04:06:29;8.60;99.90
56240;DHT22;42154;51.992;5.896;2024-03-02T04:08:55;8.70;99.90
56240;DHT22;42154;51.992;5.896;2024-03-02T04:11:21;8.60;99.90
56240;DHT22;42154;51.992;5.896;2024-03-02T04:13:47;8.60;99.90
56240;DHT22;42154;51.992;5.896;2024-03-02T04:16:13;8.60;99.90
56240;DHT22;42154;51.992;5.896;2024-03-02T04:18:38;8.60;99.90
56240;DHT22;42154;51.992;5.896;2024-03-02T04:21:05;8.60;99.90
56240;DHT22;42154;51.992;5.896;2024-03-02T04:23:30;8.60;99.90
56240;DHT22;42154;51.992;5.896;2024-03-02T04:25:56;8.60;99.90
56240;DHT22;42154;51.992;5.896;2024-03-02T04:28:22;8.60;99.90
56240;DHT22;42154;51.992;5.896;2024-03-02T04:30:48;8.50;99.90
56240;DHT22;42154;51.992;5.896;2024-03-02T04:33:13;8.50;99.90
56240;DHT22;42154;51.992;5.896;2024-03-02T04:35:39;8.50;99.90
56240;DHT22;42154;51.992;5.896;2024-03-02T04:38:05;8.50;99.90
56240;DHT22;42154;51.992;5.896;2024-03-02T04:40:30;8.50;99.90
56240;DHT22;42154;51.992;5.896;2024-03-02T04:42:57;8.50;99.90
56240;DHT22;42154;51.992;5.896;2024-03-02T04:45:24;8.50;99.90
56240;DHT22;42154;51.992;5.896;2024-03-02T04:47:50;8.50;99.90
56240;DHT22;42154;51.992;5.896;2024-03-02T04:50:16;8.50;99.90
56240;DHT22;42154;51.992;5.896;2024-03-02T04:52:42;8.40;99.90
56240;DHT22;42154;51.992;5.896;2024-03-02T04:55:07;8.40;99.90
56240;DHT22;42154;51.992;5.896;2024-03-02T04:57:56;8.40;99.90
56240;DHT22;42154;51.992;5.896;2024-03-02T05:00:22;8.30;99.90
56240;DHT22;42154;51.992;5.896;2024-03-02T05:02:47;8.20;99.90
56240;DHT22;42154;51.992;5.896;2024-03-02T05:05:13;8.20;99.90
56240;DHT22;42154;51.992;5.896;2024-03-02T05:07:41;8.10;99.90
56240;DHT22;42154;51.992;5.896;2024-03-02T05:10:08;8.10;99.90
56240;DHT22;42154;51.992;5.896;2024-03-02T05:12:34;8.00;99.90
56240;DHT22;42154;51.992;5.896;2024-03-02T05:15:22;8.00;99.90
56240;DHT22;42154;51.992;5.896;2024-03-02T05:17:48;8.00;99.90
56240;DHT22;42154;51.992;5.896;2024-03-02T05:20:13;7.90;99.90
56240;DHT22;42154;51.992;5.896;2024-03-02T05:22:39;7.90;99.90
56240;DHT22;42154;51.992;5.896;2024-03-02T05:25:06;7.90;99.90
56240;DHT22;42154;51.992;5.896;2024-03-02T05:27:32;7.90;99.90
56240;DHT22;42154;51.992;5.896;2024-03-02T05:29:59;7.90;99.90
56240;DHT22;42154;51.992;5.896;2024-03-02T05:32:24;7.90;99.90
56240;DHT22;42154;51.992;5.896;2024-03-02T05:34:50;7.80;99.90
56240;DHT22;42154;51.992;5.896;2024-03-02T05:37:16;7.80;99.90
56240;DHT22;42154;51.992;5.896;2024-03-02T05:39:42;7.80;99.90
56240;DHT22;42154;51.992;5.896;2024-03-02T05:42:11;7.70;99.90
56240;DHT22;42154;51.992;5.896;2024-03-02T05:44:37;7.70;99.90
56240;DHT22;42154;51.992;5.896;2024-03-02T05:47:03;7.70;99.90
56240;DHT22;42154;51.992;5.896;2024-03-02T05:49:29;7.70;99.90
56240;DHT22;42154;51.992;5.896;2024-03-02T05:51:55;7.70;99.90
56240;DHT22;42154;51.992;5.896;2024-03-02T05:54:21;7.60;99.90
56240;DHT22;42154;51.992;5.896;2024-03-02T05:56:47;7.60;99.90
56240;DHT22;42154;51.992;5.896;2024-03-02T05:59:13;7.50;99.90
56240;DHT22;42154;51.992;5.896;2024-03-02T06:01:39;7.50;99.90
56240;DHT22;42154;51.992;5.896;2024-03-02T06:04:05;7.50;99.90
56240;DHT22;42154;51.992;5.896;2024-03-02T06:06:31;7.50;99.90
56240;DHT22;42154;51.992;5.896;2024-03-02T06:09:01;7.50;99.90
56240;DHT22;42154;51.992;5.896;2024-03-02T06:11:28;7.50;99.90
56240;DHT22;42154;51.992;5.896;2024-03-02T06:13:54;7.40;99.90
56240;DHT22;42154;51.992;5.896;2024-03-02T06:16:20;7.50;99.90
56240;DHT22;42154;51.992;5.896;2024-03-02T06:18:45;7.40;99.90
56240;DHT22;42154;51.992;5.896;2024-03-02T06:21:11;7.40;99.90
56240;DHT22;42154;51.992;5.896;2024-03-02T06:23:37;7.40;99.90
56240;DHT22;42154;51.992;5.896;2024-03-02T06:26:02;7.30;99.90
56240;DHT22;42154;51.992;5.896;2024-03-02T06:28:28;7.30;99.90
56240;DHT22;42154;51.992;5.896;2024-03-02T06:30:54;7.30;99.90
56240;DHT22;42154;51.992;5.896;2024-03-02T06:33:20;7.30;99.90
56240;DHT22;42154;51.992;5.896;2024-03-02T06:35:46;7.20;99.90
56240;DHT22;42154;51.992;5.896;2024-03-02T06:38:11;7.20;99.90
56240;DHT22;42154;51.992;5.896;2024-03-02T06:40:37;7.20;99.90
56240;DHT22;42154;51.992;5.896;2024-03-02T06:43:04;7.20;99.90
56240;DHT22;42154;51.992;5.896;2024-03-02T06:45:29;7.30;99.90
56240;DHT22;42154;51.992;5.896;2024-03-02T06:47:56;7.40;99.90
56240;DHT22;42154;51.992;5.896;2024-03-02T06:50:22;7.50;99.90
56240;DHT22;42154;51.992;5.896;2024-03-02T06:52:47;7.50;99.90
56240;DHT22;42154;51.992;5.896;2024-03-02T06:55:13;7.60;99.90
56240;DHT22;42154;51.992;5.896;2024-03-02T06:57:39;7.60;99.90
56240;DHT22;42154;51.992;5.896;2024-03-02T07:00:05;7.70;99.90
56240;DHT22;42154;51.992;5.896;2024-03-02T07:02:34;7.70;99.90
56240;DHT22;42154;51.992;5.896;2024-03-02T07:05:02;7.80;99.90
56240;DHT22;42154;51.992;5.896;2024-03-02T07:07:28;7.90;99.90
56240;DHT22;42154;51.992;5.896;2024-03-02T07:09:53;7.90;99.90
56240;DHT22;42154;51.992;5.896;2024-03-02T07:12:19;8.00;99.90
56240;DHT22;42154;51.992;5.896;2024-03-02T07:14:45;8.00;99.90
56240;DHT22;42154;51.992;5.896;2024-03-02T07:17:30;8.00;99.90
56240;DHT22;42154;51.992;5.896;2024-03-02T07:19:56;7.90;99.90
56240;DHT22;42154;51.992;5.896;2024-03-02T07:22:22;8.00;99.90
56240;DHT22;42154;51.992;5.896;2024-03-02T07:24:48;8.00;99.90
56240;DHT22;42154;51.992;5.896;2024-03-02T07:27:15;8.10;99.90
56240;DHT22;42154;51.992;5.896;2024-03-02T07:29:42;8.20;99.90
56240;DHT22;42154;51.992;5.896;2024-03-02T07:32:08;8.20;99.90
56240;DHT22;42154;51.992;5.896;2024-03-02T07:34:34;8.10;99.90
56240;DHT22;42154;51.992;5.896;2024-03-02T07:37:00;8.10;99.90
56240;DHT22;42154;51.992;5.896;2024-03-02T07:39:26;8.10;99.90
56240;DHT22;42154;51.992;5.896;2024-03-02T07:41:52;8.10;99.90
56240;DHT22;42154;51.992;5.896;2024-03-02T07:44:19;8.10;99.90
56240;DHT22;42154;51.992;5.896;2024-03-02T07:46:45;8.20;99.90
56240;DHT22;42154;51.992;5.896;2024-03-02T07:49:18;8.30;99.90
56240;DHT22;42154;51.992;5.896;2024-03-02T07:51:44;8.30;99.90
56240;DHT22;42154;51.992;5.896;2024-03-02T07:54:10;8.30;99.90
56240;DHT22;42154;51.992;5.896;2024-03-02T07:56:36;8.40;99.90
56240;DHT22;42154;51.992;5.896;2024-03-02T07:59:03;8.40;99.90
56240;DHT22;42154;51.992;5.896;2024-03-02T08:01:30;8.50;99.90
56240;DHT22;42154;51.992;5.896;2024-03-02T08:04:01;8.60;99.90
56240;DHT22;42154;51.992;5.896;2024-03-02T08:06:28;8.60;99.90
56240;DHT22;42154;51.992;5.896;2024-03-02T08:08:55;8.60;99.90
56240;DHT22;42154;51.992;5.896;2024-03-02T08:11:21;8.60;99.90
56240;DHT22;42154;51.992;5.896;2024-03-02T08:13:47;8.70;99.90
56240;DHT22;42154;51.992;5.896;2024-03-02T08:16:16;8.70;99.90
56240;DHT22;42154;51.992;5.896;2024-03-02T08:18:46;8.70;99.90
56240;DHT22;42154;51.992;5.896;2024-03-02T08:21:13;8.80;99.90
56240;DHT22;42154;51.992;5.896;2024-03-02T08:23:38;8.90;99.90
56240;DHT22;42154;51.992;5.896;2024-03-02T08:26:06;8.90;99.90
56240;DHT22;42154;51.992;5.896;2024-03-02T08:28:32;9.00;99.90
56240;DHT22;42154;51.992;5.896;2024-03-02T08:30:58;9.10;99.90
56240;DHT22;42154;51.992;5.896;2024-03-02T08:33:24;9.20;99.90
56240;DHT22;42154;51.992;5.896;2024-03-02T08:35:50;9.20;99.90
56240;DHT22;42154;51.992;5.896;2024-03-02T08:38:16;9.20;99.90
56240;DHT22;42154;51.992;5.896;2024-03-02T08:40:42;9.20;99.90
56240;DHT22;42154;51.992;5.896;2024-03-02T08:43:09;9.30;99.90
56240;DHT22;42154;51.992;5.896;2024-03-02T08:45:34;9.30;99.90
56240;DHT22;42154;51.992;5.896;2024-03-02T08:48:00;9.40;99.90
56240;DHT22;42154;51.992;5.896;2024-03-02T08:50:26;9.40;99.90
56240;DHT22;42154;51.992;5.896;2024-03-02T08:52:52;9.40;99.90
56240;DHT22;42154;51.992;5.896;2024-03-02T08:55:17;9.40;99.90
56240;DHT22;42154;51.992;5.896;2024-03-02T08:57:43;9.50;99.90
56240;DHT22;42154;51.992;5.896;2024-03-02T09:00:09;9.50;99.90
56240;DHT22;42154;51.992;5.896;2024-03-02T09:02:35;9.50;99.90
56240;DHT22;42154;51.992;5.896;2024-03-02T09:05:01;9.50;99.90
56240;DHT22;42154;51.992;5.896;2024-03-02T09:07:27;9.50;99.90
56240;DHT22;42154;51.992;5.896;2024-03-02T09:09:53;9.60;99.90
56240;DHT22;42154;51.992;5.896;2024-03-02T09:12:19;9.60;99.90
56240;DHT22;42154;51.992;5.896;2024-03-02T09:14:45;9.60;99.90
56240;DHT22;42154;51.992;5.896;2024-03-02T09:17:12;9.70;99.90
56240;DHT22;42154;51.992;5.896;2024-03-02T09:19:39;9.70;99.90
56240;DHT22;42154;51.992;5.896;2024-03-02T09:22:05;9.70;99.90
56240;DHT22;42154;51.992;5.896;2024-03-02T09:24:32;9.70;99.90
56240;DHT22;42154;51.992;5.896;2024-03-02T09:26:59;9.80;99.90
56240;DHT22;42154;51.992;5.896;2024-03-02T09:29:25;9.70;99.90
56240;DHT22;42154;51.992;5.896;2024-03-02T09:31:51;9.80;99.90
56240;DHT22;42154;51.992;5.896;2024-03-02T09:34:17;9.80;99.90
56240;DHT22;42154;51.992;5.896;2024-03-02T09:36:43;9.80;99.90
56240;DHT22;42154;51.992;5.896;2024-03-02T09:39:09;9.80;99.90
56240;DHT22;42154;51.992;5.896;2024-03-02T09:41:36;9.90;99.90
56240;DHT22;42154;51.992;5.896;2024-03-02T09:44:03;9.80;99.90
56240;DHT22;42154;51.992;5.896;2024-03-02T09:46:28;9.90;99.90
56240;DHT22;42154;51.992;5.896;2024-03-02T09:48:54;9.90;99.90
56240;DHT22;42154;51.992;5.896;2024-03-02T09:51:20;9.90;99.90
56240;DHT22;42154;51.992;5.896;2024-03-02T09:53:47;9.90;99.90
56240;DHT22;42154;51.992;5.896;2024-03-02T09:56:13;10.00;99.90
56240;DHT22;42154;51.992;5.896;2024-03-02T09:58:39;10.00;99.90
56240;DHT22;42154;51.992;5.896;2024-03-02T10:01:08;10.00;99.90
56240;DHT22;42154;51.992;5.896;2024-03-02T10:03:36;10.00;99.90
56240;DHT22;42154;51.992;5.896;2024-03-02T10:06:25;10.10;99.90
56240;DHT22;42154;51.992;5.896;2024-03-02T10:08:54;10.20;99.90
56240;DHT22;42154;51.992;5.896;2024-03-02T10:11:27;10.20;99.90
56240;DHT22;42154;51.992;5.896;2024-03-02T10:14:13;10.20;99.90
56240;DHT22;42154;51.992;5.896;2024-03-02T10:16:44;10.30;99.90
56240;DHT22;42154;51.992;5.896;2024-03-02T10:19:20;10.30;99.90
56240;DHT22;42154;51.992;5.896;2024-03-02T10:21:52;10.40;99.90
56240;DHT22;42154;51.992;5.896;2024-03-02T10:24:19;10.40;99.90
56240;DHT22;42154;51.992;5.896;2024-03-02T10:26:45;10.50;99.90
56240;DHT22;42154;51.992;5.896;2024-03-02T10:29:11;10.50;99.90
56240;DHT22;42154;51.992;5.896;2024-03-02T10:31:38;10.60;99.90
56240;DHT22;42154;51.992;5.896;2024-03-02T10:34:05;10.60;99.90
56240;DHT22;42154;51.992;5.896;2024-03-02T10:36:33;10.70;99.90
56240;DHT22;42154;51.992;5.896;2024-03-02T10:39:04;10.70;99.90
56240;DHT22;42154;51.992;5.896;2024-03-02T10:41:40;10.70;99.90
56240;DHT22;42154;51.992;5.896;2024-03-02T10:44:09;10.80;99.90
56240;DHT22;42154;51.992;5.896;2024-03-02T10:46:36;10.80;99.90
56240;DHT22;42154;51.992;5.896;2024-03-02T10:49:04;10.80;99.90
56240;DHT22;42154;51.992;5.896;2024-03-02T10:51:32;10.80;99.90
56240;DHT22;42154;51.992;5.896;2024-03-02T10:54:00;10.90;99.90
56240;DHT22;42154;51.992;5.896;2024-03-02T10:56:34;10.90;99.90
56240;DHT22;42154;51.992;5.896;2024-03-02T10:59:12;10.90;99.90
56240;DHT22;42154;51.992;5.896;2024-03-02T11:01:43;11.00;99.90
56240;DHT22;42154;51.992;5.896;2024-03-02T11:04:09;11.00;99.90
56240;DHT22;42154;51.992;5.896;2024-03-02T11:06:39;11.00;99.90
56240;DHT22;42154;51.992;5.896;2024-03-02T11:09:10;11.10;99.90
56240;DHT22;42154;51.992;5.896;2024-03-02T11:11:41;11.20;99.90
56240;DHT22;42154;51.992;5.896;2024-03-02T11:14:13;11.20;99.90
56240;DHT22;42154;51.992;5.896;2024-03-02T11:16:39;11.30;99.90
56240;DHT22;42154;51.992;5.896;2024-03-02T11:19:09;11.30;99.90
56240;DHT22;42154;51.992;5.896;2024-03-02T11:21:36;11.40;99.90
56240;DHT22;42154;51.992;5.896;2024-03-02T11:26:50;11.50;99.90
56240;DHT22;42154;51.992;5.896;2024-03-02T11:32:16;11.50;99.90
56240;DHT22;42154;51.992;5.896;2024-03-02T11:34:45;11.50;99.90
56240;DHT22;42154;51.992;5.896;2024-03-02T11:37:13;11.50;99.90
56240;DHT22;42154;51.992;5.896;2024-03-02T11:39:39;11.50;99.90
56240;DHT22;42154;51.992;5.896;2024-03-02T11:42:06;11.60;99.90
56240;DHT22;42154;51.992;5.896;2024-03-02T11:44:34;11.60;99.90
56240;DHT22;42154;51.992;5.896;2024-03-02T11:47:07;11.60;99.90
56240;DHT22;42154;51.992;5.896;2024-03-02T11:49:50;11.60;99.90
56240;DHT22;42154;51.992;5.896;2024-03-02T11:52:20;11.70;99.90
56240;DHT22;42154;51.992;5.896;2024-03-02T11:54:48;11.70;99.90
56240;DHT22;42154;51.992;5.896;2024-03-02T11:57:15;11.80;99.90
56240;DHT22;42154;51.992;5.896;2024-03-02T11:59:42;11.90;99.90
56240;DHT22;42154;51.992;5.896;2024-03-02T12:02:15;11.80;99.90
56240;DHT22;42154;51.992;5.896;2024-03-02T12:04:43;11.90;99.90
56240;DHT22;42154;51.992;5.896;2024-03-02T12:07:09;11.90;99.90
56240;DHT22;42154;51.992;5.896;2024-03-02T12:09:35;11.90;99.90
56240;DHT22;42154;51.992;5.896;2024-03-02T12:12:05;12.00;99.90
56240;DHT22;42154;51.992;5.896;2024-03-02T12:14:33;12.10;99.90
56240;DHT22;42154;51.992;5.896;2024-03-02T12:16:59;12.20;99.90
56240;DHT22;42154;51.992;5.896;2024-03-02T12:19:25;12.20;99.90
56240;DHT22;42154;51.992;5.896;2024-03-02T12:21:58;12.30;99.90
56240;DHT22;42154;51.992;5.896;2024-03-02T12:24:26;12.40;99.90
56240;DHT22;42154;51.992;5.896;2024-03-02T12:26:53;12.40;99.90
56240;DHT22;42154;51.992;5.896;2024-03-02T12:29:19;12.50;99.90
56240;DHT22;42154;51.992;5.896;2024-03-02T12:31:48;12.50;99.90
56240;DHT22;42154;51.992;5.896;2024-03-02T12:34:16;12.60;99.90
56240;DHT22;42154;51.992;5.896;2024-03-02T12:36:43;12.50;99.90
56240;DHT22;42154;51.992;5.896;2024-03-02T12:39:09;12.50;99.90
56240;DHT22;42154;51.992;5.896;2024-03-02T12:41:37;12.40;99.90
56240;DHT22;42154;51.992;5.896;2024-03-02T12:44:04;12.40;99.90
56240;DHT22;42154;51.992;5.896;2024-03-02T12:46:31;12.40;99.90
56240;DHT22;42154;51.992;5.896;2024-03-02T12:48:57;12.50;99.90
56240;DHT22;42154;51.992;5.896;2024-03-02T12:51:24;12.50;99.90
56240;DHT22;42154;51.992;5.896;2024-03-02T12:53:57;12.50;99.90
56240;DHT22;42154;51.992;5.896;2024-03-02T12:56:26;12.60;99.90
56240;DHT22;42154;51.992;5.896;2024-03-02T12:58:55;12.70;99.90
56240;DHT22;42154;51.992;5.896;2024-03-02T13:01:22;12.80;99.90
56240;DHT22;42154;51.992;5.896;2024-03-02T13:03:52;12.90;99.90
56240;DHT22;42154;51.992;5.896;2024-03-02T13:06:18;13.10;99.90
56240;DHT22;42154;51.992;5.896;2024-03-02T13:08:45;13.20;99.90
56240;DHT22;42154;51.992;5.896;2024-03-02T13:11:12;13.30;99.90
56240;DHT22;42154;51.992;5.896;2024-03-02T13:13:39;13.30;99.90
56240;DHT22;42154;51.992;5.896;2024-03-02T13:16:09;13.40;99.90
56240;DHT22;42154;51.992;5.896;2024-03-02T13:18:36;13.40;99.90
56240;DHT22;42154;51.992;5.896;2024-03-02T13:21:02;13.40;99.90
56240;DHT22;42154;51.992;5.896;2024-03-02T13:23:28;13.40;99.90
56240;DHT22;42154;51.992;5.896;2024-03-02T13:25:57;13.50;99.90
56240;DHT22;42154;51.992;5.896;2024-03-02T13:28:24;13.50;99.90
56240;DHT22;42154;51.992;5.896;2024-03-02T13:30:50;13.50;99.90
56240;DHT22;42154;51.992;5.896;2024-03-02T13:33:16;13.60;99.90
56240;DHT22;42154;51.992;5.896;2024-03-02T13:35:50;13.70;99.90
56240;DHT22;42154;51.992;5.896;2024-03-02T13:38:20;13.80;99.90
56240;DHT22;42154;51.992;5.896;2024-03-02T13:40:47;13.90;99.90
56240;DHT22;42154;51.992;5.896;2024-03-02T13:43:17;14.00;99.90
56240;DHT22;42154;51.992;5.896;2024-03-02T13:45:44;14.00;99.90
56240;DHT22;42154;51.992;5.896;2024-03-02T13:48:09;14.00;99.90
56240;DHT22;42154;51.992;5.896;2024-03-02T13:50:35;14.10;99.90
56240;DHT22;42154;51.992;5.896;2024-03-02T13:53:01;14.10;99.90
56240;DHT22;42154;51.992;5.896;2024-03-02T13:55:28;14.00;99.90
56240;DHT22;42154;51.992;5.896;2024-03-02T13:57:54;14.00;99.90
56240;DHT22;42154;51.992;5.896;2024-03-02T14:00:20;13.90;99.90
56240;DHT22;42154;51.992;5.896;2024-03-02T14:02:46;13.70;99.90
56240;DHT22;42154;51.992;5.896;2024-03-02T14:05:12;13.70;99.90
56240;DHT22;42154;51.992;5.896;2024-03-02T14:07:39;13.60;99.90
56240;DHT22;42154;51.992;5.896;2024-03-02T14:10:06;13.50;99.90
56240;DHT22;42154;51.992;5.896;2024-03-02T14:12:32;13.50;99.90
56240;DHT22;42154;51.992;5.896;2024-03-02T14:14:58;13.50;99.90
56240;DHT22;42154;51.992;5.896;2024-03-02T14:17:26;13.50;99.90
56240;DHT22;42154;51.992;5.896;2024-03-02T14:19:52;13.50;99.90
56240;DHT22;42154;51.992;5.896;2024-03-02T14:22:19;13.50;99.90
56240;DHT22;42154;51.992;5.896;2024-03-02T14:24:45;13.50;99.90
56240;DHT22;42154;51.992;5.896;2024-03-02T14:27:12;13.50;99.90
56240;DHT22;42154;51.992;5.896;2024-03-02T14:29:39;13.60;99.90
56240;DHT22;42154;51.992;5.896;2024-03-02T14:32:06;13.60;99.90
56240;DHT22;42154;51.992;5.896;2024-03-02T14:34:34;13.60;99.90
56240;DHT22;42154;51.992;5.896;2024-03-02T14:37:00;13.70;99.90
56240;DHT22;42154;51.992;5.896;2024-03-02T14:39:26;13.70;99.90
56240;DHT22;42154;51.992;5.896;2024-03-02T14:41:52;13.80;99.90
56240;DHT22;42154;51.992;5.896;2024-03-02T14:44:18;13.70;99.90
56240;DHT22;42154;51.992;5.896;2024-03-02T14:46:47;13.80;99.90
56240;DHT22;42154;51.992;5.896;2024-03-02T14:49:13;13.80;99.90
56240;DHT22;42154;51.992;5.896;2024-03-02T14:51:39;13.80;99.90
56240;DHT22;42154;51.992;5.896;2024-03-02T14:54:05;13.80;99.90
56240;DHT22;42154;51.992;5.896;2024-03-02T14:56:31;13.80;99.90
56240;DHT22;42154;51.992;5.896;2024-03-02T14:58:59;13.80;99.90
56240;DHT22;42154;51.992;5.896;2024-03-02T15:01:25;13.80;99.90
56240;DHT22;42154;51.992;5.896;2024-03-02T15:03:51;13.80;99.90
56240;DHT22;42154;51.992;5.896;2024-03-02T15:06:17;13.90;99.90
56240;DHT22;42154;51.992;5.896;2024-03-02T15:08:43;13.90;99.90
56240;DHT22;42154;51.992;5.896;2024-03-02T15:11:11;13.90;99.90
56240;DHT22;42154;51.992;5.896;2024-03-02T15:13:37;13.90;99.90
56240;DHT22;42154;51.992;5.896;2024-03-02T15:16:03;13.90;99.90
56240;DHT22;42154;51.992;5.896;2024-03-02T15:18:29;13.70;99.90
56240;DHT22;42154;51.992;5.896;2024-03-02T15:20:55;13.60;99.90
56240;DHT22;42154;51.992;5.896;2024-03-02T15:23:21;13.50;99.90
56240;DHT22;42154;51.992;5.896;2024-03-02T15:25:46;13.40;99.90
56240;DHT22;42154;51.992;5.896;2024-03-02T15:28:12;13.40;99.90
56240;DHT22;42154;51.992;5.896;2024-03-02T15:30:38;13.40;99.90
56240;DHT22;42154;51.992;5.896;2024-03-02T15:33:04;13.50;99.90
56240;DHT22;42154;51.992;5.896;2024-03-02T15:35:30;13.50;99.90
56240;DHT22;42154;51.992;5.896;2024-03-02T15:37:55;13.60;99.90
56240;DHT22;42154;51.992;5.896;2024-03-02T15:40:21;13.70;99.90
56240;DHT22;42154;51.992;5.896;2024-03-02T15:42:47;13.60;99.90
56240;DHT22;42154;51.992;5.896;2024-03-02T15:45:13;13.60;99.90
56240;DHT22;42154;51.992;5.896;2024-03-02T15:47:39;13.50;99.90
56240;DHT22;42154;51.992;5.896;2024-03-02T15:50:05;13.50;99.90